createdAt,value
2017-02-02T00:04:04.037Z,4.48
2017-02-02T00:09:00.556Z,4.48
2017-02-02T00:13:57.077Z,4.44
2017-02-02T00:18:55.858Z,4.34
2017-02-02T00:23:51.685Z,4.41
2017-02-02T00:28:48.449Z,4.40
2017-02-02T00:33:44.501Z,4.58
2017-02-02T00:38:42.020Z,4.42
2017-02-02T00:43:38.508Z,4.53
2017-02-02T00:48:34.955Z,4.50
2017-02-02T00:53:31.034Z,4.38
2017-02-02T00:58:27.581Z,4.52
2017-02-02T01:03:24.059Z,4.48
2017-02-02T01:08:20.877Z,4.45
2017-02-02T01:13:17.314Z,4.38
2017-02-02T01:18:13.735Z,4.37
2017-02-02T01:23:10.714Z,4.35
2017-02-02T01:28:06.861Z,4.35
2017-02-02T01:33:03.233Z,4.31
2017-02-02T01:37:59.759Z,4.40
2017-02-02T01:42:56.191Z,4.45
2017-02-02T01:47:53.065Z,4.48
2017-02-02T01:52:49.632Z,4.44
2017-02-02T01:57:46.148Z,4.41
2017-02-02T02:02:42.653Z,4.50
2017-02-02T02:07:39.000Z,4.56
2017-02-02T02:12:35.201Z,4.52
2017-02-02T02:17:31.969Z,4.42
2017-02-02T02:22:29.688Z,4.50
2017-02-02T02:27:26.185Z,4.50
2017-02-02T02:32:22.761Z,4.56
2017-02-02T02:37:19.396Z,4.66
2017-02-02T02:42:16.545Z,4.75
2017-02-02T02:47:15.778Z,4.74
2017-02-02T02:52:11.878Z,4.70
2017-02-02T02:57:08.501Z,4.67
2017-02-02T03:02:04.852Z,4.68
2017-02-02T03:07:01.427Z,4.66
2017-02-02T03:11:57.986Z,4.68
2017-02-02T03:16:54.502Z,4.74
2017-02-02T03:21:50.745Z,4.87
2017-02-02T03:26:47.316Z,4.87
2017-02-02T03:31:44.092Z,4.93
2017-02-02T03:36:40.434Z,4.87
2017-02-02T03:41:36.916Z,4.92
2017-02-02T03:46:33.310Z,4.90
2017-02-02T03:51:29.692Z,4.87
2017-02-02T03:56:27.019Z,4.80
2017-02-02T04:01:23.431Z,4.71
2017-02-02T04:06:19.954Z,4.52
2017-02-02T04:11:16.335Z,4.34
2017-02-02T04:16:12.822Z,4.32
2017-02-02T04:21:09.463Z,4.50
2017-02-02T04:26:06.055Z,4.62
2017-02-02T04:31:02.029Z,4.78
2017-02-02T04:35:58.436Z,4.75
2017-02-02T04:40:54.888Z,4.78
2017-02-02T04:45:51.338Z,4.75
2017-02-02T04:50:47.825Z,4.84
2017-02-02T04:55:44.301Z,4.86
2017-02-02T05:00:40.883Z,4.84
2017-02-02T05:05:37.696Z,4.77
2017-02-02T05:10:33.974Z,4.90
2017-02-02T05:15:30.494Z,4.70
2017-02-02T05:20:26.801Z,4.77
2017-02-02T05:25:23.320Z,4.66
2017-02-02T05:30:19.891Z,4.59
2017-02-02T05:35:16.245Z,4.48
2017-02-02T05:40:13.245Z,4.23
2017-02-02T05:45:10.034Z,4.32
2017-02-02T05:50:06.298Z,4.16
2017-02-02T05:55:02.854Z,4.19
2017-02-02T05:59:59.144Z,3.96
2017-02-02T06:04:56.058Z,3.95
2017-02-02T06:09:52.313Z,3.77
2017-02-02T06:14:48.799Z,3.73
2017-02-02T06:19:44.877Z,3.70
2017-02-02T06:24:42.509Z,3.60
2017-02-02T06:29:38.713Z,3.63
2017-02-02T06:34:36.083Z,3.65
2017-02-02T06:39:32.301Z,3.66
2017-02-02T06:44:28.625Z,3.98
2017-02-02T06:49:25.894Z,3.95
2017-02-02T06:54:22.330Z,3.94
2017-02-02T06:59:18.910Z,3.81
2017-02-02T07:04:15.238Z,3.84
2017-02-02T07:09:12.155Z,3.92
2017-02-02T07:14:08.607Z,3.95
2017-02-02T07:19:05.273Z,4.13
2017-02-02T07:24:01.645Z,4.12
2017-02-02T07:28:57.945Z,4.20
2017-02-02T07:33:54.531Z,4.24
2017-02-02T07:38:51.766Z,4.22
2017-02-02T07:43:49.065Z,4.23
2017-02-02T07:48:46.448Z,4.49
2017-02-02T07:53:43.350Z,4.58
2017-02-02T07:58:40.214Z,4.68
2017-02-02T08:03:36.777Z,4.90
2017-02-02T08:08:33.418Z,5.10
2017-02-02T08:13:29.923Z,5.28
2017-02-02T08:18:26.365Z,5.38
2017-02-02T08:23:22.894Z,5.44
2017-02-02T08:28:19.491Z,5.38
2017-02-02T08:33:15.982Z,5.46
2017-02-02T08:38:12.502Z,5.35
2017-02-02T08:43:09.904Z,5.53
2017-02-02T08:48:07.321Z,5.84
2017-02-02T08:53:04.166Z,6.33
2017-02-02T08:58:00.708Z,6.27
2017-02-02T09:02:57.363Z,6.30
2017-02-02T09:07:54.139Z,6.59
2017-02-02T09:12:50.848Z,6.51
2017-02-02T09:17:47.116Z,6.52
2017-02-02T09:22:44.037Z,6.51
2017-02-02T09:27:40.614Z,6.69
2017-02-02T09:32:37.091Z,7.32
2017-02-02T09:37:34.362Z,7.56
2017-02-02T09:42:31.022Z,7.97
2017-02-02T09:47:27.733Z,8.10
2017-02-02T09:52:24.608Z,8.46
2017-02-02T09:57:21.405Z,8.61
2017-02-02T10:07:18.571Z,9.34
2017-02-02T10:12:15.313Z,9.59
2017-02-02T10:17:13.310Z,9.08
2017-02-02T10:22:09.550Z,9.06
2017-02-02T10:27:08.511Z,9.40
2017-02-02T10:32:04.139Z,9.92
2017-02-02T10:37:00.982Z,10.02
2017-02-02T10:47:01.585Z,11.37
2017-02-02T10:51:58.315Z,11.45
2017-02-02T10:56:55.483Z,11.77
2017-02-02T11:01:52.270Z,12.43
2017-02-02T11:06:49.668Z,11.66
2017-02-02T11:11:45.996Z,11.23
2017-02-02T11:16:43.711Z,11.50
2017-02-02T11:21:39.441Z,10.97
2017-02-02T11:26:38.708Z,11.52
2017-02-02T11:31:34.750Z,11.27
2017-02-02T11:36:31.771Z,11.51
2017-02-02T11:41:29.545Z,12.54
2017-02-02T11:46:28.374Z,12.32
2017-02-02T11:51:24.697Z,12.87
2017-02-02T11:56:22.399Z,13.03
2017-02-02T12:01:18.502Z,12.68
2017-02-02T12:06:16.054Z,13.00
2017-02-02T12:11:12.729Z,13.16
2017-02-02T12:16:09.717Z,13.00
2017-02-02T12:21:06.025Z,12.78
2017-02-02T12:26:02.419Z,12.42
2017-02-02T12:30:58.610Z,11.73
2017-02-02T12:35:55.034Z,11.62
2017-02-02T12:40:51.593Z,11.78
2017-02-02T12:45:48.047Z,11.69
2017-02-02T12:50:45.223Z,11.73
2017-02-02T12:55:41.844Z,11.81
2017-02-02T13:00:38.155Z,11.77
2017-02-02T13:05:34.746Z,11.54
2017-02-02T13:10:31.318Z,11.48
2017-02-02T13:15:28.025Z,11.63
2017-02-02T13:20:24.415Z,11.66
2017-02-02T13:25:21.481Z,11.69
2017-02-02T13:30:18.194Z,11.81
2017-02-02T13:35:14.978Z,12.03
2017-02-02T13:40:12.399Z,12.20
2017-02-02T13:45:09.412Z,12.25
2017-02-02T13:50:06.798Z,12.15
2017-02-02T13:55:03.508Z,12.31
2017-02-02T14:00:00.108Z,12.32
2017-02-02T14:04:56.360Z,12.32
2017-02-02T14:09:52.745Z,12.28
2017-02-02T14:14:48.921Z,12.09
2017-02-02T14:19:45.406Z,12.13
2017-02-02T14:24:41.846Z,12.21
2017-02-02T14:29:38.122Z,12.18
2017-02-02T14:34:35.781Z,12.09
2017-02-02T14:39:32.003Z,12.13
2017-02-02T14:44:28.571Z,12.04
2017-02-02T14:49:24.983Z,11.91
2017-02-02T14:54:21.559Z,11.97
2017-02-02T14:59:17.985Z,11.95
2017-02-02T15:04:14.609Z,11.91
2017-02-02T15:09:11.096Z,11.84
2017-02-02T15:14:07.857Z,11.80
2017-02-02T15:19:05.333Z,11.78
2017-02-02T15:24:01.998Z,11.62
2017-02-02T15:28:59.152Z,11.54
2017-02-02T15:33:55.626Z,11.50
2017-02-02T15:38:52.199Z,11.37
2017-02-02T15:43:49.157Z,11.18
2017-02-02T15:48:45.454Z,11.04
2017-02-02T15:53:42.255Z,11.05
2017-02-02T15:58:38.497Z,10.96
2017-02-02T16:03:35.156Z,10.84
2017-02-02T16:08:31.440Z,10.75
2017-02-02T16:13:27.731Z,10.56
2017-02-02T16:18:24.173Z,10.57
2017-02-02T16:23:21.785Z,10.38
2017-02-02T16:28:18.038Z,10.40
2017-02-02T16:33:14.149Z,10.38
2017-02-02T16:38:10.667Z,10.31
2017-02-02T16:43:07.135Z,10.28
2017-02-02T16:48:03.878Z,10.17
2017-02-02T16:53:00.480Z,9.98
2017-02-02T16:57:56.767Z,9.72
2017-02-02T17:02:53.329Z,9.62
2017-02-02T17:07:50.063Z,9.72
2017-02-02T17:12:47.392Z,9.56
2017-02-02T17:17:46.201Z,9.51
2017-02-02T17:22:42.620Z,9.39
2017-02-02T17:27:39.458Z,9.25
2017-02-02T17:32:37.568Z,9.06
2017-02-02T17:37:33.898Z,8.95
2017-02-02T17:42:31.161Z,8.69
2017-02-02T17:47:27.400Z,8.41
2017-02-02T17:52:23.760Z,8.60
2017-02-02T17:57:20.262Z,8.38
2017-02-02T18:02:16.781Z,8.26
2017-02-02T18:07:13.220Z,8.18
2017-02-02T18:12:09.720Z,8.19
2017-02-02T18:17:06.522Z,8.19
2017-02-02T18:22:02.901Z,8.24
2017-02-02T18:26:59.357Z,8.24
2017-02-02T18:31:56.957Z,8.19
2017-02-02T18:36:53.280Z,8.09
2017-02-02T18:41:49.954Z,8.09
2017-02-02T18:46:46.640Z,7.90
2017-02-02T18:51:43.859Z,7.61
2017-02-02T18:56:40.768Z,7.57
2017-02-02T19:01:37.539Z,7.63
2017-02-02T19:06:34.194Z,7.61
2017-02-02T19:11:30.878Z,7.67
2017-02-02T19:16:27.378Z,7.69
2017-02-02T19:21:25.140Z,7.66
2017-02-02T19:26:21.810Z,7.69
2017-02-02T19:31:18.652Z,7.57
2017-02-02T19:36:15.179Z,7.58
2017-02-02T19:41:11.821Z,7.57
2017-02-02T19:46:08.802Z,7.47
2017-02-02T19:51:05.636Z,7.51
2017-02-02T19:56:02.181Z,7.48
2017-02-02T20:00:58.963Z,7.38
2017-02-02T20:05:55.363Z,7.35
2017-02-02T20:10:52.087Z,7.24
2017-02-02T20:15:48.496Z,7.18
2017-02-02T20:20:45.752Z,7.06
2017-02-02T20:25:42.535Z,7.11
2017-02-02T20:30:38.945Z,6.93
2017-02-02T20:35:35.464Z,6.85
2017-02-02T20:40:32.737Z,6.77
2017-02-02T20:45:30.019Z,6.74
2017-02-02T20:50:26.351Z,6.70
2017-02-02T20:55:23.043Z,6.63
2017-02-02T21:00:19.897Z,6.56
2017-02-02T21:05:16.791Z,6.41
2017-02-02T21:10:13.184Z,6.14
2017-02-02T21:15:11.302Z,5.93
2017-02-02T21:20:07.367Z,5.83
2017-02-02T21:25:03.702Z,5.86
2017-02-02T21:30:00.250Z,5.69
2017-02-02T21:34:56.583Z,5.41
2017-02-02T21:39:53.210Z,5.33
2017-02-02T21:44:49.605Z,5.39
2017-02-02T21:49:46.036Z,5.43
2017-02-02T21:54:42.385Z,5.39
2017-02-02T21:59:39.006Z,5.21
2017-02-02T22:04:35.420Z,5.20
2017-02-02T22:09:32.499Z,5.11
2017-02-02T22:14:28.989Z,5.12
2017-02-02T22:19:25.229Z,5.11
2017-02-02T22:24:21.387Z,5.10
2017-02-02T22:29:18.369Z,4.90
2017-02-02T22:34:14.777Z,4.74
2017-02-02T22:39:11.811Z,4.82
2017-02-02T22:44:08.289Z,4.87
2017-02-02T22:49:05.714Z,4.97
2017-02-02T22:54:02.084Z,4.90
2017-02-02T22:58:58.738Z,4.94
2017-02-02T23:03:55.467Z,4.89
2017-02-02T23:08:51.666Z,4.89
2017-02-02T23:13:48.534Z,5.21
2017-02-02T23:18:45.226Z,5.46
2017-02-02T23:23:41.946Z,5.38
2017-02-02T23:28:38.521Z,5.18
2017-02-02T23:33:35.349Z,5.30
2017-02-02T23:38:32.104Z,5.26
2017-02-02T23:43:28.519Z,5.30
2017-02-02T23:48:25.234Z,5.23
2017-02-02T23:53:21.824Z,5.17
2017-02-02T23:58:18.319Z,5.23
